createdAt,value
2023-04-25T00:02:26.872Z,98386.45
2023-04-25T00:04:54.797Z,98377.01
2023-04-25T00:07:25.240Z,98371.65
2023-04-25T00:09:52.168Z,98367.89
2023-04-25T00:12:18.976Z,98363.64
2023-04-25T00:14:46.958Z,98358.55
2023-04-25T00:17:13.983Z,98353.77
2023-04-25T00:19:40.989Z,98347.82
2023-04-25T00:22:08.088Z,98347.01
2023-04-25T00:24:34.896Z,98344.80
2023-04-25T00:27:01.980Z,98340.20
2023-04-25T00:29:28.991Z,98345.55
2023-04-25T00:31:58.457Z,98343.23
2023-04-25T00:34:29.876Z,98339.18
2023-04-25T00:36:57.305Z,98337.36
2023-04-25T00:39:24.117Z,98335.88
2023-04-25T00:41:53.626Z,98330.29
2023-04-25T00:44:23.627Z,98333.92
2023-04-25T00:46:51.021Z,98333.03
2023-04-25T00:49:19.918Z,98334.52
2023-04-25T00:51:48.686Z,98329.16
2023-04-25T00:54:16.716Z,98331.30
2023-04-25T00:56:45.554Z,98333.09
2023-04-25T00:59:16.191Z,98335.77
2023-04-25T01:01:45.913Z,98333.30
2023-04-25T01:04:14.122Z,98328.04
2023-04-25T01:06:41.975Z,98332.69
2023-04-25T01:09:08.921Z,98333.43
2023-04-25T04:53:29.291Z,98427.02
2023-04-25T04:56:09.719Z,98436.46
2023-04-25T04:59:03.138Z,98442.43
2023-04-25T06:25:56.420Z,98533.85
2023-04-25T06:28:24.666Z,98541.64
2023-04-25T06:30:56.011Z,98555.63
2023-04-25T06:33:27.569Z,98560.57
2023-04-25T06:35:56.735Z,98563.35
2023-04-25T06:38:31.385Z,98566.89
2023-04-25T06:41:00.419Z,98573.46
2023-04-25T06:43:33.252Z,98563.16
2023-04-25T06:46:17.115Z,98570.27
2023-04-25T06:48:45.230Z,98573.83
2023-04-25T06:51:13.618Z,98574.54
2023-04-25T06:53:40.781Z,98574.02
2023-04-25T06:56:12.909Z,98575.71
2023-04-25T06:58:53.330Z,98582.67
2023-04-25T07:01:36.539Z,98589.61
2023-04-25T07:04:10.613Z,98587.04
2023-04-25T07:06:45.076Z,98590.69
2023-04-25T07:09:16.875Z,98593.09
2023-04-25T07:11:48.694Z,98597.45
2023-04-25T07:14:15.615Z,98594.61
2023-04-25T07:16:44.840Z,98596.45
2023-04-25T07:19:13.718Z,98599.61
2023-04-25T07:21:40.662Z,98593.00
2023-04-25T07:24:07.375Z,98593.14
2023-04-25T07:26:41.360Z,98590.00
2023-04-25T07:29:23.117Z,98590.50
2023-04-25T07:31:50.098Z,98596.27
2023-04-25T07:34:17.173Z,98597.48
2023-04-25T07:36:46.053Z,98600.30
2023-04-25T07:39:13.518Z,98602.29
2023-04-25T07:41:41.171Z,98597.80
2023-04-25T07:44:09.766Z,98598.95
2023-04-25T07:46:37.828Z,98606.30
2023-04-25T07:49:12.333Z,98606.89
2023-04-25T07:51:49.780Z,98605.61
2023-04-25T07:54:17.751Z,98603.88
2023-04-25T07:56:53.340Z,98607.94
2023-04-25T07:59:22.664Z,98613.91
2023-04-25T08:01:49.970Z,98614.45
2023-04-25T08:04:18.526Z,98608.23
2023-04-25T08:07:06.452Z,98612.73
2023-04-25T08:09:40.588Z,98614.52
2023-04-25T08:12:15.272Z,98616.69
2023-04-25T08:14:42.264Z,98618.55
2023-04-25T08:17:16.523Z,98617.42
2023-04-25T08:19:43.730Z,98611.52
2023-04-25T08:22:16.583Z,98618.31
2023-04-25T08:24:51.949Z,98619.48
2023-04-25T08:27:19.930Z,98620.95
2023-04-25T08:29:47.291Z,98622.62
2023-04-25T08:32:14.798Z,98624.55
2023-04-25T08:34:51.892Z,98626.20
2023-04-25T08:37:20.187Z,98627.64
2023-04-25T08:40:16.045Z,98638.45
2023-04-25T08:42:47.889Z,98635.06
2023-04-25T08:45:15.257Z,98637.77
2023-04-25T09:11:24.566Z,98664.07
2023-04-25T09:14:21.179Z,98698.27
2023-04-25T10:34:43.523Z,98649.55
2023-04-25T11:04:36.040Z,98638.88
2023-04-25T11:07:06.931Z,98649.44
2023-04-25T11:09:42.540Z,98652.45
2023-04-25T11:12:12.754Z,98651.69
2023-04-25T11:14:43.496Z,98644.46
2023-04-25T11:17:11.515Z,98649.22
2023-04-25T11:19:42.596Z,98641.52
2023-04-25T11:22:11.138Z,98632.48
2023-04-25T11:24:43.009Z,98641.32
2023-04-25T11:27:09.964Z,98647.39
2023-04-25T11:29:36.998Z,98654.84
2023-04-25T11:32:04.494Z,98657.33
2023-04-25T11:34:33.192Z,98659.05
2023-04-25T11:37:01.083Z,98674.39
2023-04-25T11:39:30.526Z,98666.89
2023-04-25T11:41:57.407Z,98661.95
2023-04-25T11:44:24.119Z,98656.36
2023-04-25T11:46:51.090Z,98644.42
2023-04-25T11:49:18.569Z,98642.70
2023-04-25T11:51:52.987Z,98690.69
2023-04-25T11:54:20.098Z,98698.45
2023-04-25T11:56:49.037Z,98693.44
2023-04-25T13:54:28.116Z,98607.91
2023-04-25T13:56:59.029Z,98610.73
2023-04-25T13:59:28.666Z,98617.33
2023-04-25T14:01:58.265Z,98625.73
2023-04-25T14:04:25.593Z,98631.58
2023-04-25T14:06:55.662Z,98636.61
2023-04-25T14:09:27.758Z,98631.70
2023-04-25T14:12:02.775Z,98632.27
2023-04-25T14:14:31.683Z,98632.62
2023-04-25T14:17:03.007Z,98637.44
2023-04-25T14:19:32.414Z,98643.25
2023-04-25T14:22:01.905Z,98646.67
2023-04-25T14:24:30.909Z,98645.42
2023-04-25T14:26:59.809Z,98643.30
2023-04-25T14:29:31.299Z,98640.42
2023-04-25T14:32:01.384Z,98641.95
2023-04-25T14:34:28.215Z,98652.61
2023-04-25T14:37:00.599Z,98655.02
2023-04-25T14:39:27.135Z,98655.15
2023-04-25T14:41:58.349Z,98653.35
2023-04-25T14:44:30.140Z,98652.95
2023-04-25T14:46:59.845Z,98652.79
2023-04-25T14:49:28.480Z,98655.98
2023-04-25T14:51:57.929Z,98645.86
2023-04-25T14:54:27.731Z,98642.81
2023-04-25T14:56:58.203Z,98624.30
2023-04-25T14:59:30.397Z,98623.95
2023-04-25T16:51:00.919Z,98682.50
2023-04-25T16:53:27.543Z,98684.27
2023-04-25T16:55:56.585Z,98685.63
2023-04-25T16:58:24.218Z,98688.39
2023-04-25T17:00:53.131Z,98691.19
2023-04-25T17:03:21.203Z,98697.06
2023-04-25T17:05:56.093Z,98696.14
2023-04-25T17:08:24.833Z,98713.29
2023-04-25T17:10:52.325Z,98706.30
2023-04-25T17:13:30.546Z,98706.40
2023-04-25T17:16:10.259Z,98705.09
2023-04-25T17:18:39.422Z,98708.84
2023-04-25T17:21:06.606Z,98716.52
2023-04-25T17:23:35.459Z,98715.59
2023-04-25T17:26:02.615Z,98723.17
2023-04-25T17:28:29.516Z,98723.23
2023-04-25T17:30:58.083Z,98721.77
2023-04-25T17:33:44.813Z,98717.83
2023-04-25T17:36:14.417Z,98717.55
2023-04-25T17:38:41.282Z,98724.16
2023-04-25T17:41:10.147Z,98732.75
2023-04-25T17:43:37.124Z,98728.09
2023-04-25T17:46:04.111Z,98739.02
2023-04-25T17:48:31.201Z,98739.75
2023-04-25T17:51:03.128Z,98741.91
2023-04-25T17:53:32.660Z,98740.84
2023-04-25T17:56:03.989Z,98743.48
2023-04-25T17:58:32.846Z,98751.75
2023-04-25T18:01:04.783Z,98758.27
2023-04-25T18:03:34.078Z,98766.64
2023-04-25T18:06:04.174Z,98772.59
2023-04-25T18:08:33.711Z,98780.79
2023-04-25T18:11:00.779Z,98786.52
2023-04-25T18:13:30.241Z,98795.66
2023-04-25T18:16:00.224Z,98800.11
2023-04-25T18:18:33.648Z,98801.09
2023-04-25T18:21:08.501Z,98820.54
2023-04-25T18:23:46.405Z,98827.81
2023-04-25T18:26:16.640Z,98836.34
2023-04-25T18:28:45.000Z,98839.14
2023-04-25T18:31:13.390Z,98842.82
2023-04-25T18:33:42.132Z,98849.93
2023-04-25T18:36:09.846Z,98852.23
2023-04-25T21:08:05.255Z,98893.89
2023-04-25T21:10:37.285Z,98893.91
2023-04-25T21:13:04.579Z,98890.85
2023-04-25T21:15:33.695Z,98892.13
2023-04-25T21:18:01.272Z,98900.09
2023-04-25T21:20:30.074Z,98891.36
2023-04-25T21:22:56.735Z,98897.52
2023-04-25T21:25:30.410Z,98896.52
2023-04-25T21:27:58.132Z,98899.55
2023-04-25T21:30:28.070Z,98905.01
2023-04-25T22:52:22.914Z,98941.03
